sensor_id;sensor_type;location;lat;lon;timestamp;P1;durP1;ratioP1;P2;durP2;ratioP2
71176;SDS011;58877;51.992;4.504;2023-11-19T00:02:23;14.85;;;8.66;;
71176;SDS011;58877;51.992;4.504;2023-11-19T00:04:49;14.39;;;8.56;;
71176;SDS011;58877;51.992;4.504;2023-11-19T00:07:15;13.96;;;8.20;;
71176;SDS011;58877;51.992;4.504;2023-11-19T00:09:41;15.18;;;8.64;;
71176;SDS011;58877;51.992;4.504;2023-11-19T00:12:08;14.95;;;8.57;;
71176;SDS011;58877;51.992;4.504;2023-11-19T00:14:38;17.76;;;10.28;;
71176;SDS011;58877;51.992;4.504;2023-11-19T00:17:04;15.39;;;9.06;;
71176;SDS011;58877;51.992;4.504;2023-11-19T00:19:29;15.42;;;9.13;;
71176;SDS011;58877;51.992;4.504;2023-11-19T00:21:55;16.28;;;9.48;;
71176;SDS011;58877;51.992;4.504;2023-11-19T00:24:20;14.44;;;8.32;;
71176;SDS011;58877;51.992;4.504;2023-11-19T00:26:46;15.22;;;8.85;;
71176;SDS011;58877;51.992;4.504;2023-11-19T00:29:11;15.56;;;9.02;;
71176;SDS011;58877;51.992;4.504;2023-11-19T00:31:38;16.13;;;9.22;;
71176;SDS011;58877;51.992;4.504;2023-11-19T00:34:04;16.08;;;9.25;;
71176;SDS011;58877;51.992;4.504;2023-11-19T00:36:31;16.38;;;9.44;;
71176;SDS011;58877;51.992;4.504;2023-11-19T00:38:57;17.57;;;10.18;;
71176;SDS011;58877;51.992;4.504;2023-11-19T00:41:23;15.86;;;9.25;;
71176;SDS011;58877;51.992;4.504;2023-11-19T00:43:48;16.70;;;9.76;;
71176;SDS011;58877;51.992;4.504;2023-11-19T00:46:14;15.63;;;8.92;;
71176;SDS011;58877;51.992;4.504;2023-11-19T00:48:40;18.76;;;10.61;;
71176;SDS011;58877;51.992;4.504;2023-11-19T00:51:05;16.13;;;9.23;;
71176;SDS011;58877;51.992;4.504;2023-11-19T00:53:31;17.49;;;10.15;;
71176;SDS011;58877;51.992;4.504;2023-11-19T00:55:57;15.43;;;8.95;;
71176;SDS011;58877;51.992;4.504;2023-11-19T00:58:23;16.49;;;9.59;;
71176;SDS011;58877;51.992;4.504;2023-11-19T01:00:55;18.80;;;10.82;;
71176;SDS011;58877;51.992;4.504;2023-11-19T01:03:30;17.70;;;10.32;;
71176;SDS011;58877;51.992;4.504;2023-11-19T01:05:55;19.07;;;10.91;;
71176;SDS011;58877;51.992;4.504;2023-11-19T01:08:21;18.02;;;10.20;;
71176;SDS011;58877;51.992;4.504;2023-11-19T01:10:46;18.62;;;10.53;;
71176;SDS011;58877;51.992;4.504;2023-11-19T01:13:20;19.71;;;10.99;;
71176;SDS011;58877;51.992;4.504;2023-11-19T01:16:05;21.47;;;12.07;;
71176;SDS011;58877;51.992;4.504;2023-11-19T01:21:47;22.78;;;12.87;;
71176;SDS011;58877;51.992;4.504;2023-11-19T01:30:21;17.11;;;10.01;;
71176;SDS011;58877;51.992;4.504;2023-11-19T01:36:17;17.95;;;10.33;;
71176;SDS011;58877;51.992;4.504;2023-11-19T01:39:07;21.32;;;12.07;;
71176;SDS011;58877;51.992;4.504;2023-11-19T01:42:00;21.07;;;12.09;;
71176;SDS011;58877;51.992;4.504;2023-11-19T01:44:38;18.44;;;10.67;;
71176;SDS011;58877;51.992;4.504;2023-11-19T01:47:15;21.12;;;12.02;;
71176;SDS011;58877;51.992;4.504;2023-11-19T01:56:21;17.47;;;10.12;;
71176;SDS011;58877;51.992;4.504;2023-11-19T02:05:35;17.17;;;9.97;;
71176;SDS011;58877;51.992;4.504;2023-11-19T02:11:19;22.05;;;12.40;;
71176;SDS011;58877;51.992;4.504;2023-11-19T02:13:59;20.79;;;11.93;;
71176;SDS011;58877;51.992;4.504;2023-11-19T02:17:54;20.80;;;12.00;;
71176;SDS011;58877;51.992;4.504;2023-11-19T02:23:40;22.64;;;12.93;;
71176;SDS011;58877;51.992;4.504;2023-11-19T02:30:05;23.83;;;13.56;;
71176;SDS011;58877;51.992;4.504;2023-11-19T02:32:38;21.47;;;12.25;;
71176;SDS011;58877;51.992;4.504;2023-11-19T02:35:22;21.51;;;12.34;;
71176;SDS011;58877;51.992;4.504;2023-11-19T02:40:52;20.24;;;11.57;;
71176;SDS011;58877;51.992;4.504;2023-11-19T02:50:13;23.02;;;13.19;;
71176;SDS011;58877;51.992;4.504;2023-11-19T02:53:08;21.45;;;12.12;;
71176;SDS011;58877;51.992;4.504;2023-11-19T02:56:00;21.53;;;12.20;;
71176;SDS011;58877;51.992;4.504;2023-11-19T02:58:55;21.88;;;12.54;;
71176;SDS011;58877;51.992;4.504;2023-11-19T03:01:47;22.62;;;12.93;;
71176;SDS011;58877;51.992;4.504;2023-11-19T03:04:15;25.00;;;14.08;;
71176;SDS011;58877;51.992;4.504;2023-11-19T03:06:45;23.63;;;13.35;;
71176;SDS011;58877;51.992;4.504;2023-11-19T03:09:12;24.94;;;13.97;;
71176;SDS011;58877;51.992;4.504;2023-11-19T03:11:38;23.52;;;13.30;;
71176;SDS011;58877;51.992;4.504;2023-11-19T03:14:04;24.63;;;14.04;;
71176;SDS011;58877;51.992;4.504;2023-11-19T03:16:29;23.41;;;13.27;;
71176;SDS011;58877;51.992;4.504;2023-11-19T03:18:55;21.60;;;12.31;;
71176;SDS011;58877;51.992;4.504;2023-11-19T03:21:30;20.64;;;11.94;;
71176;SDS011;58877;51.992;4.504;2023-11-19T03:23:57;24.21;;;13.81;;
71176;SDS011;58877;51.992;4.504;2023-11-19T03:26:26;21.72;;;12.45;;
71176;SDS011;58877;51.992;4.504;2023-11-19T03:28:58;24.21;;;13.54;;
71176;SDS011;58877;51.992;4.504;2023-11-19T03:31:24;24.99;;;13.99;;
71176;SDS011;58877;51.992;4.504;2023-11-19T03:33:50;27.01;;;15.28;;
71176;SDS011;58877;51.992;4.504;2023-11-19T03:36:19;22.02;;;12.67;;
71176;SDS011;58877;51.992;4.504;2023-11-19T03:38:45;23.68;;;13.43;;
71176;SDS011;58877;51.992;4.504;2023-11-19T03:41:11;25.14;;;14.06;;
71176;SDS011;58877;51.992;4.504;2023-11-19T03:43:37;28.66;;;15.96;;
71176;SDS011;58877;51.992;4.504;2023-11-19T03:46:04;22.06;;;12.49;;
71176;SDS011;58877;51.992;4.504;2023-11-19T03:48:30;22.78;;;12.99;;
71176;SDS011;58877;51.992;4.504;2023-11-19T03:50:56;22.25;;;12.51;;
71176;SDS011;58877;51.992;4.504;2023-11-19T03:53:22;23.13;;;13.00;;
71176;SDS011;58877;51.992;4.504;2023-11-19T03:55:49;24.52;;;13.79;;
71176;SDS011;58877;51.992;4.504;2023-11-19T03:58:15;24.89;;;13.95;;
71176;SDS011;58877;51.992;4.504;2023-11-19T04:00:40;26.48;;;14.83;;
71176;SDS011;58877;51.992;4.504;2023-11-19T04:03:06;25.63;;;14.39;;
71176;SDS011;58877;51.992;4.504;2023-11-19T04:05:31;24.81;;;14.04;;
71176;SDS011;58877;51.992;4.504;2023-11-19T04:07:57;22.01;;;12.47;;
71176;SDS011;58877;51.992;4.504;2023-11-19T04:10:23;24.55;;;13.81;;
71176;SDS011;58877;51.992;4.504;2023-11-19T04:12:48;22.65;;;12.79;;
71176;SDS011;58877;51.992;4.504;2023-11-19T04:15:14;25.67;;;14.40;;
71176;SDS011;58877;51.992;4.504;2023-11-19T04:17:40;25.77;;;14.28;;
71176;SDS011;58877;51.992;4.504;2023-11-19T04:20:06;28.89;;;15.92;;
71176;SDS011;58877;51.992;4.504;2023-11-19T04:22:35;22.64;;;12.67;;
71176;SDS011;58877;51.992;4.504;2023-11-19T04:25:01;25.70;;;14.46;;
71176;SDS011;58877;51.992;4.504;2023-11-19T04:27:27;27.58;;;15.31;;
71176;SDS011;58877;51.992;4.504;2023-11-19T04:29:52;24.69;;;13.79;;
71176;SDS011;58877;51.992;4.504;2023-11-19T04:32:18;22.37;;;12.65;;
71176;SDS011;58877;51.992;4.504;2023-11-19T04:34:44;21.12;;;12.01;;
71176;SDS011;58877;51.992;4.504;2023-11-19T04:37:10;24.29;;;13.69;;
71176;SDS011;58877;51.992;4.504;2023-11-19T04:39:35;22.80;;;12.83;;
71176;SDS011;58877;51.992;4.504;2023-11-19T04:42:02;23.19;;;13.13;;
71176;SDS011;58877;51.992;4.504;2023-11-19T04:44:29;26.94;;;15.09;;
71176;SDS011;58877;51.992;4.504;2023-11-19T04:46:55;24.29;;;13.57;;
71176;SDS011;58877;51.992;4.504;2023-11-19T04:49:21;23.39;;;13.07;;
71176;SDS011;58877;51.992;4.504;2023-11-19T04:51:46;24.80;;;13.82;;
71176;SDS011;58877;51.992;4.504;2023-11-19T04:54:12;25.65;;;14.21;;
71176;SDS011;58877;51.992;4.504;2023-11-19T04:56:38;23.51;;;13.16;;
71176;SDS011;58877;51.992;4.504;2023-11-19T04:59:05;22.49;;;12.65;;
71176;SDS011;58877;51.992;4.504;2023-11-19T05:01:32;22.56;;;12.71;;
71176;SDS011;58877;51.992;4.504;2023-11-19T05:03:58;25.59;;;14.36;;
71176;SDS011;58877;51.992;4.504;2023-11-19T05:06:30;25.80;;;14.42;;
71176;SDS011;58877;51.992;4.504;2023-11-19T05:08:58;25.89;;;14.33;;
71176;SDS011;58877;51.992;4.504;2023-11-19T05:11:33;26.90;;;14.94;;
71176;SDS011;58877;51.992;4.504;2023-11-19T05:13:59;25.44;;;14.12;;
71176;SDS011;58877;51.992;4.504;2023-11-19T05:16:26;25.39;;;14.26;;
71176;SDS011;58877;51.992;4.504;2023-11-19T05:18:51;24.40;;;13.77;;
71176;SDS011;58877;51.992;4.504;2023-11-19T05:21:17;22.75;;;12.80;;
71176;SDS011;58877;51.992;4.504;2023-11-19T05:23:43;25.36;;;13.99;;
71176;SDS011;58877;51.992;4.504;2023-11-19T05:26:09;25.45;;;14.06;;
71176;SDS011;58877;51.992;4.504;2023-11-19T05:28:42;26.05;;;14.55;;
71176;SDS011;58877;51.992;4.504;2023-11-19T05:31:08;24.41;;;13.67;;
71176;SDS011;58877;51.992;4.504;2023-11-19T05:33:34;27.52;;;15.18;;
71176;SDS011;58877;51.992;4.504;2023-11-19T05:36:00;25.48;;;14.12;;
71176;SDS011;58877;51.992;4.504;2023-11-19T05:38:28;27.65;;;15.33;;
71176;SDS011;58877;51.992;4.504;2023-11-19T05:40:54;30.48;;;16.87;;
71176;SDS011;58877;51.992;4.504;2023-11-19T05:43:20;26.08;;;14.35;;
71176;SDS011;58877;51.992;4.504;2023-11-19T05:45:48;29.68;;;16.43;;
71176;SDS011;58877;51.992;4.504;2023-11-19T05:48:14;25.83;;;14.46;;
71176;SDS011;58877;51.992;4.504;2023-11-19T05:50:39;23.55;;;13.29;;
71176;SDS011;58877;51.992;4.504;2023-11-19T05:53:05;22.00;;;12.47;;
71176;SDS011;58877;51.992;4.504;2023-11-19T05:55:34;22.82;;;12.88;;
71176;SDS011;58877;51.992;4.504;2023-11-19T05:58:01;21.16;;;11.84;;
71176;SDS011;58877;51.992;4.504;2023-11-19T06:00:28;26.24;;;14.54;;
71176;SDS011;58877;51.992;4.504;2023-11-19T06:02:56;24.89;;;13.76;;
71176;SDS011;58877;51.992;4.504;2023-11-19T06:05:28;22.85;;;12.63;;
71176;SDS011;58877;51.992;4.504;2023-11-19T06:07:54;22.69;;;12.52;;
71176;SDS011;58877;51.992;4.504;2023-11-19T06:10:20;26.27;;;14.46;;
71176;SDS011;58877;51.992;4.504;2023-11-19T06:12:46;21.37;;;11.89;;
71176;SDS011;58877;51.992;4.504;2023-11-19T06:15:21;21.93;;;12.23;;
71176;SDS011;58877;51.992;4.504;2023-11-19T06:17:50;21.81;;;12.31;;
71176;SDS011;58877;51.992;4.504;2023-11-19T06:20:19;22.68;;;12.84;;
71176;SDS011;58877;51.992;4.504;2023-11-19T06:22:47;20.51;;;11.53;;
71176;SDS011;58877;51.992;4.504;2023-11-19T06:25:13;22.05;;;12.41;;
71176;SDS011;58877;51.992;4.504;2023-11-19T06:27:42;19.28;;;10.81;;
71176;SDS011;58877;51.992;4.504;2023-11-19T06:30:17;23.77;;;13.25;;
71176;SDS011;58877;51.992;4.504;2023-11-19T06:32:43;22.68;;;12.83;;
71176;SDS011;58877;51.992;4.504;2023-11-19T06:35:08;22.59;;;12.66;;
71176;SDS011;58877;51.992;4.504;2023-11-19T06:37:39;22.97;;;12.91;;
71176;SDS011;58877;51.992;4.504;2023-11-19T06:40:07;21.23;;;11.87;;
71176;SDS011;58877;51.992;4.504;2023-11-19T06:42:34;22.70;;;12.76;;
71176;SDS011;58877;51.992;4.504;2023-11-19T06:45:00;23.55;;;13.16;;
71176;SDS011;58877;51.992;4.504;2023-11-19T06:47:27;21.25;;;11.98;;
71176;SDS011;58877;51.992;4.504;2023-11-19T06:49:53;23.34;;;13.17;;
71176;SDS011;58877;51.992;4.504;2023-11-19T06:52:19;21.67;;;12.23;;
71176;SDS011;58877;51.992;4.504;2023-11-19T06:54:45;23.26;;;13.06;;
71176;SDS011;58877;51.992;4.504;2023-11-19T06:57:16;25.15;;;14.04;;
71176;SDS011;58877;51.992;4.504;2023-11-19T06:59:42;23.74;;;13.24;;
71176;SDS011;58877;51.992;4.504;2023-11-19T07:02:07;25.70;;;14.40;;
71176;SDS011;58877;51.992;4.504;2023-11-19T07:04:34;25.46;;;14.24;;
71176;SDS011;58877;51.992;4.504;2023-11-19T07:06:59;23.82;;;13.32;;
71176;SDS011;58877;51.992;4.504;2023-11-19T07:09:25;24.25;;;13.65;;
71176;SDS011;58877;51.992;4.504;2023-11-19T07:11:52;24.01;;;13.48;;
71176;SDS011;58877;51.992;4.504;2023-11-19T07:14:18;26.09;;;14.51;;
71176;SDS011;58877;51.992;4.504;2023-11-19T07:16:44;23.82;;;13.18;;
71176;SDS011;58877;51.992;4.504;2023-11-19T07:19:11;26.02;;;14.57;;
71176;SDS011;58877;51.992;4.504;2023-11-19T07:21:40;21.88;;;12.39;;
71176;SDS011;58877;51.992;4.504;2023-11-19T07:24:09;22.88;;;12.79;;
71176;SDS011;58877;51.992;4.504;2023-11-19T07:26:45;25.23;;;14.21;;
71176;SDS011;58877;51.992;4.504;2023-11-19T07:29:15;24.40;;;13.58;;
71176;SDS011;58877;51.992;4.504;2023-11-19T07:31:42;23.44;;;12.92;;
71176;SDS011;58877;51.992;4.504;2023-11-19T07:34:09;25.55;;;14.20;;
71176;SDS011;58877;51.992;4.504;2023-11-19T07:36:36;24.22;;;13.42;;
71176;SDS011;58877;51.992;4.504;2023-11-19T07:39:03;25.36;;;14.05;;
71176;SDS011;58877;51.992;4.504;2023-11-19T07:41:30;23.12;;;12.74;;
71176;SDS011;58877;51.992;4.504;2023-11-19T07:43:59;26.13;;;14.39;;
71176;SDS011;58877;51.992;4.504;2023-11-19T07:46:24;22.56;;;12.67;;
71176;SDS011;58877;51.992;4.504;2023-11-19T07:48:50;23.76;;;13.26;;
71176;SDS011;58877;51.992;4.504;2023-11-19T07:51:17;22.82;;;12.81;;
71176;SDS011;58877;51.992;4.504;2023-11-19T07:53:42;22.62;;;12.63;;
71176;SDS011;58877;51.992;4.504;2023-11-19T07:56:09;23.59;;;13.10;;
71176;SDS011;58877;51.992;4.504;2023-11-19T07:58:38;24.97;;;14.02;;
71176;SDS011;58877;51.992;4.504;2023-11-19T08:01:04;22.48;;;12.46;;
71176;SDS011;58877;51.992;4.504;2023-11-19T08:03:30;21.60;;;12.04;;
71176;SDS011;58877;51.992;4.504;2023-11-19T08:05:56;26.79;;;14.79;;
71176;SDS011;58877;51.992;4.504;2023-11-19T08:08:22;23.98;;;13.34;;
71176;SDS011;58877;51.992;4.504;2023-11-19T08:10:51;21.58;;;12.13;;
71176;SDS011;58877;51.992;4.504;2023-11-19T08:13:18;21.25;;;12.02;;
71176;SDS011;58877;51.992;4.504;2023-11-19T08:15:45;22.39;;;12.63;;
71176;SDS011;58877;51.992;4.504;2023-11-19T08:18:11;21.77;;;12.29;;
71176;SDS011;58877;51.992;4.504;2023-11-19T08:20:36;22.28;;;12.67;;
71176;SDS011;58877;51.992;4.504;2023-11-19T08:23:02;22.65;;;12.86;;
71176;SDS011;58877;51.992;4.504;2023-11-19T08:25:31;22.05;;;12.44;;
71176;SDS011;58877;51.992;4.504;2023-11-19T08:27:59;23.57;;;13.29;;
71176;SDS011;58877;51.992;4.504;2023-11-19T08:30:25;22.42;;;12.60;;
71176;SDS011;58877;51.992;4.504;2023-11-19T08:32:53;22.85;;;12.70;;
71176;SDS011;58877;51.992;4.504;2023-11-19T08:35:19;23.01;;;12.86;;
71176;SDS011;58877;51.992;4.504;2023-11-19T08:37:44;25.63;;;14.19;;
71176;SDS011;58877;51.992;4.504;2023-11-19T08:40:11;24.20;;;13.37;;
71176;SDS011;58877;51.992;4.504;2023-11-19T08:42:40;22.65;;;12.60;;
71176;SDS011;58877;51.992;4.504;2023-11-19T08:45:06;24.50;;;13.69;;
71176;SDS011;58877;51.992;4.504;2023-11-19T08:47:38;22.78;;;12.67;;
71176;SDS011;58877;51.992;4.504;2023-11-19T08:50:06;24.51;;;13.57;;
71176;SDS011;58877;51.992;4.504;2023-11-19T08:52:33;23.98;;;13.32;;
71176;SDS011;58877;51.992;4.504;2023-11-19T08:54:59;22.41;;;12.54;;
71176;SDS011;58877;51.992;4.504;2023-11-19T08:57:25;22.78;;;12.78;;
71176;SDS011;58877;51.992;4.504;2023-11-19T08:59:50;21.71;;;12.42;;
71176;SDS011;58877;51.992;4.504;2023-11-19T09:02:16;21.72;;;12.52;;
71176;SDS011;58877;51.992;4.504;2023-11-19T09:04:43;21.63;;;12.41;;
71176;SDS011;58877;51.992;4.504;2023-11-19T09:07:09;22.60;;;12.84;;
71176;SDS011;58877;51.992;4.504;2023-11-19T09:09:35;21.94;;;12.43;;
71176;SDS011;58877;51.992;4.504;2023-11-19T09:12:02;22.33;;;12.52;;
71176;SDS011;58877;51.992;4.504;2023-11-19T09:14:29;21.46;;;12.10;;
71176;SDS011;58877;51.992;4.504;2023-11-19T09:16:55;21.51;;;12.17;;
71176;SDS011;58877;51.992;4.504;2023-11-19T09:19:24;20.26;;;11.46;;
71176;SDS011;58877;51.992;4.504;2023-11-19T09:21:51;20.63;;;11.69;;
71176;SDS011;58877;51.992;4.504;2023-11-19T09:24:18;19.89;;;11.32;;
71176;SDS011;58877;51.992;4.504;2023-11-19T09:26:43;19.38;;;10.99;;
71176;SDS011;58877;51.992;4.504;2023-11-19T09:29:09;19.30;;;10.89;;
71176;SDS011;58877;51.992;4.504;2023-11-19T09:31:37;20.31;;;11.39;;
71176;SDS011;58877;51.992;4.504;2023-11-19T09:34:03;18.80;;;10.63;;
71176;SDS011;58877;51.992;4.504;2023-11-19T09:36:30;22.79;;;12.83;;
71176;SDS011;58877;51.992;4.504;2023-11-19T09:38:59;19.66;;;11.24;;
71176;SDS011;58877;51.992;4.504;2023-11-19T09:41:26;20.52;;;11.70;;
71176;SDS011;58877;51.992;4.504;2023-11-19T09:43:53;20.46;;;11.54;;
71176;SDS011;58877;51.992;4.504;2023-11-19T09:46:18;20.51;;;11.56;;
71176;SDS011;58877;51.992;4.504;2023-11-19T09:48:46;17.01;;;9.61;;
71176;SDS011;58877;51.992;4.504;2023-11-19T09:51:13;17.63;;;9.95;;
71176;SDS011;58877;51.992;4.504;2023-11-19T09:53:39;20.56;;;11.53;;
71176;SDS011;58877;51.992;4.504;2023-11-19T09:56:05;19.20;;;10.77;;
71176;SDS011;58877;51.992;4.504;2023-11-19T09:58:33;18.33;;;10.31;;
71176;SDS011;58877;51.992;4.504;2023-11-19T10:00:59;20.46;;;11.44;;
71176;SDS011;58877;51.992;4.504;2023-11-19T10:03:27;19.07;;;10.56;;
71176;SDS011;58877;51.992;4.504;2023-11-19T10:06:03;19.50;;;10.79;;
71176;SDS011;58877;51.992;4.504;2023-11-19T10:08:31;19.80;;;11.09;;
71176;SDS011;58877;51.992;4.504;2023-11-19T10:10:58;19.17;;;10.75;;
71176;SDS011;58877;51.992;4.504;2023-11-19T10:13:30;21.26;;;11.79;;
71176;SDS011;58877;51.992;4.504;2023-11-19T10:15:56;20.23;;;11.20;;
71176;SDS011;58877;51.992;4.504;2023-11-19T10:18:27;19.91;;;11.13;;
71176;SDS011;58877;51.992;4.504;2023-11-19T10:20:53;17.75;;;10.01;;
71176;SDS011;58877;51.992;4.504;2023-11-19T10:23:20;18.75;;;10.55;;
71176;SDS011;58877;51.992;4.504;2023-11-19T10:25:46;18.47;;;10.38;;
71176;SDS011;58877;51.992;4.504;2023-11-19T10:28:12;16.66;;;9.58;;
71176;SDS011;58877;51.992;4.504;2023-11-19T10:30:41;18.54;;;10.56;;
71176;SDS011;58877;51.992;4.504;2023-11-19T10:33:11;17.86;;;10.08;;
71176;SDS011;58877;51.992;4.504;2023-11-19T10:35:52;20.97;;;11.81;;
71176;SDS011;58877;51.992;4.504;2023-11-19T10:38:19;20.96;;;11.80;;
71176;SDS011;58877;51.992;4.504;2023-11-19T10:40:47;17.05;;;9.66;;
71176;SDS011;58877;51.992;4.504;2023-11-19T10:43:14;17.51;;;10.00;;
71176;SDS011;58877;51.992;4.504;2023-11-19T10:45:40;16.03;;;9.23;;
71176;SDS011;58877;51.992;4.504;2023-11-19T10:48:06;18.02;;;10.37;;
71176;SDS011;58877;51.992;4.504;2023-11-19T10:50:33;16.65;;;9.59;;
71176;SDS011;58877;51.992;4.504;2023-11-19T10:53:01;15.81;;;9.19;;
71176;SDS011;58877;51.992;4.504;2023-11-19T10:55:29;16.29;;;9.43;;
71176;SDS011;58877;51.992;4.504;2023-11-19T10:58:00;20.28;;;11.67;;
71176;SDS011;58877;51.992;4.504;2023-11-19T11:00:26;19.94;;;11.43;;
71176;SDS011;58877;51.992;4.504;2023-11-19T11:02:56;22.84;;;12.83;;
71176;SDS011;58877;51.992;4.504;2023-11-19T11:05:26;24.02;;;13.39;;
71176;SDS011;58877;51.992;4.504;2023-11-19T11:07:52;23.28;;;12.96;;
71176;SDS011;58877;51.992;4.504;2023-11-19T11:10:21;24.93;;;13.86;;
71176;SDS011;58877;51.992;4.504;2023-11-19T11:12:52;24.04;;;13.46;;
71176;SDS011;58877;51.992;4.504;2023-11-19T11:15:26;21.25;;;12.12;;
71176;SDS011;58877;51.992;4.504;2023-11-19T11:18:06;23.75;;;13.18;;
71176;SDS011;58877;51.992;4.504;2023-11-19T11:20:54;24.06;;;13.38;;
71176;SDS011;58877;51.992;4.504;2023-11-19T11:27:33;18.51;;;10.62;;
71176;SDS011;58877;51.992;4.504;2023-11-19T11:30:06;19.62;;;11.11;;
71176;SDS011;58877;51.992;4.504;2023-11-19T11:39:07;17.75;;;9.98;;
71176;SDS011;58877;51.992;4.504;2023-11-19T11:41:49;18.72;;;10.45;;
71176;SDS011;58877;51.992;4.504;2023-11-19T11:50:28;17.10;;;9.65;;
71176;SDS011;58877;51.992;4.504;2023-11-19T11:53:15;16.49;;;9.30;;
71176;SDS011;58877;51.992;4.504;2023-11-19T11:58:38;16.84;;;9.53;;
71176;SDS011;58877;51.992;4.504;2023-11-19T12:01:25;16.14;;;8.95;;
71176;SDS011;58877;51.992;4.504;2023-11-19T12:04:13;15.63;;;8.73;;
71176;SDS011;58877;51.992;4.504;2023-11-19T12:10:12;15.86;;;8.99;;
71176;SDS011;58877;51.992;4.504;2023-11-19T12:12:59;17.34;;;9.83;;
71176;SDS011;58877;51.992;4.504;2023-11-19T12:16:06;16.78;;;9.73;;
71176;SDS011;58877;51.992;4.504;2023-11-19T12:18:43;18.36;;;10.42;;
71176;SDS011;58877;51.992;4.504;2023-11-19T12:21:32;20.32;;;11.39;;
71176;SDS011;58877;51.992;4.504;2023-11-19T12:23:58;19.64;;;10.98;;
71176;SDS011;58877;51.992;4.504;2023-11-19T12:26:39;17.81;;;10.16;;
71176;SDS011;58877;51.992;4.504;2023-11-19T12:32:15;19.09;;;10.90;;
71176;SDS011;58877;51.992;4.504;2023-11-19T12:40:31;18.18;;;10.40;;
71176;SDS011;58877;51.992;4.504;2023-11-19T12:43:04;18.01;;;10.38;;
71176;SDS011;58877;51.992;4.504;2023-11-19T12:45:36;21.06;;;12.06;;
71176;SDS011;58877;51.992;4.504;2023-11-19T12:48:24;19.31;;;10.95;;
71176;SDS011;58877;51.992;4.504;2023-11-19T12:50:57;20.56;;;11.60;;
71176;SDS011;58877;51.992;4.504;2023-11-19T12:53:30;20.64;;;11.60;;
71176;SDS011;58877;51.992;4.504;2023-11-19T12:56:23;18.15;;;10.26;;
71176;SDS011;58877;51.992;4.504;2023-11-19T12:59:09;18.18;;;10.45;;
71176;SDS011;58877;51.992;4.504;2023-11-19T13:01:41;17.38;;;10.08;;
71176;SDS011;58877;51.992;4.504;2023-11-19T13:04:29;17.38;;;10.05;;
71176;SDS011;58877;51.992;4.504;2023-11-19T13:07:02;18.82;;;10.75;;
71176;SDS011;58877;51.992;4.504;2023-11-19T13:12:29;18.88;;;10.67;;
71176;SDS011;58877;51.992;4.504;2023-11-19T13:14:59;23.58;;;13.20;;
71176;SDS011;58877;51.992;4.504;2023-11-19T13:17:31;21.07;;;11.84;;
71176;SDS011;58877;51.992;4.504;2023-11-19T13:19:57;18.78;;;10.74;;
71176;SDS011;58877;51.992;4.504;2023-11-19T13:22:37;19.65;;;11.14;;
71176;SDS011;58877;51.992;4.504;2023-11-19T13:28:14;20.32;;;11.53;;
71176;SDS011;58877;51.992;4.504;2023-11-19T13:30:41;21.18;;;12.01;;
71176;SDS011;58877;51.992;4.504;2023-11-19T13:33:10;21.79;;;12.52;;
71176;SDS011;58877;51.992;4.504;2023-11-19T13:35:56;19.23;;;11.23;;
71176;SDS011;58877;51.992;4.504;2023-11-19T13:38:28;17.52;;;10.27;;
71176;SDS011;58877;51.992;4.504;2023-11-19T13:41:03;19.52;;;11.42;;
71176;SDS011;58877;51.992;4.504;2023-11-19T13:46:47;16.12;;;9.94;;
71176;SDS011;58877;51.992;4.504;2023-11-19T13:49:18;17.20;;;10.05;;
71176;SDS011;58877;51.992;4.504;2023-11-19T13:51:47;20.31;;;11.51;;
71176;SDS011;58877;51.992;4.504;2023-11-19T13:54:13;18.61;;;10.46;;
71176;SDS011;58877;51.992;4.504;2023-11-19T13:56:39;18.10;;;10.21;;
71176;SDS011;58877;51.992;4.504;2023-11-19T13:59:09;19.17;;;10.82;;
71176;SDS011;58877;51.992;4.504;2023-11-19T14:01:40;17.81;;;10.16;;
71176;SDS011;58877;51.992;4.504;2023-11-19T14:04:38;15.27;;;8.84;;
71176;SDS011;58877;51.992;4.504;2023-11-19T14:07:09;20.07;;;11.33;;
71176;SDS011;58877;51.992;4.504;2023-11-19T14:09:51;20.51;;;11.53;;
71176;SDS011;58877;51.992;4.504;2023-11-19T14:12:47;17.86;;;10.08;;
71176;SDS011;58877;51.992;4.504;2023-11-19T14:15:17;18.55;;;10.61;;
71176;SDS011;58877;51.992;4.504;2023-11-19T14:17:53;18.96;;;10.81;;
71176;SDS011;58877;51.992;4.504;2023-11-19T14:20:23;20.83;;;11.91;;
71176;SDS011;58877;51.992;4.504;2023-11-19T14:22:51;20.87;;;11.93;;
71176;SDS011;58877;51.992;4.504;2023-11-19T14:25:29;19.75;;;11.18;;
71176;SDS011;58877;51.992;4.504;2023-11-19T14:28:01;19.60;;;11.12;;
71176;SDS011;58877;51.992;4.504;2023-11-19T14:30:34;20.15;;;11.44;;
71176;SDS011;58877;51.992;4.504;2023-11-19T14:33:07;19.56;;;10.97;;
71176;SDS011;58877;51.992;4.504;2023-11-19T14:35:33;22.28;;;12.63;;
71176;SDS011;58877;51.992;4.504;2023-11-19T14:38:01;19.83;;;11.41;;
71176;SDS011;58877;51.992;4.504;2023-11-19T14:40:58;15.71;;;8.94;;
71176;SDS011;58877;51.992;4.504;2023-11-19T14:43:33;15.02;;;8.45;;
71176;SDS011;58877;51.992;4.504;2023-11-19T14:46:23;17.04;;;9.59;;
71176;SDS011;58877;51.992;4.504;2023-11-19T14:48:51;19.30;;;10.86;;
71176;SDS011;58877;51.992;4.504;2023-11-19T14:51:26;16.97;;;9.70;;
71176;SDS011;58877;51.992;4.504;2023-11-19T14:54:04;16.72;;;9.67;;
71176;SDS011;58877;51.992;4.504;2023-11-19T14:56:52;19.00;;;10.86;;
71176;SDS011;58877;51.992;4.504;2023-11-19T15:03:17;18.96;;;10.73;;
71176;SDS011;58877;51.992;4.504;2023-11-19T15:06:46;19.13;;;10.80;;
71176;SDS011;58877;51.992;4.504;2023-11-19T15:09:30;20.09;;;11.45;;
71176;SDS011;58877;51.992;4.504;2023-11-19T15:14:42;19.96;;;11.05;;
71176;SDS011;58877;51.992;4.504;2023-11-19T15:17:09;18.08;;;10.07;;
71176;SDS011;58877;51.992;4.504;2023-11-19T15:19:45;19.76;;;10.98;;
71176;SDS011;58877;51.992;4.504;2023-11-19T15:22:16;17.13;;;9.70;;
71176;SDS011;58877;51.992;4.504;2023-11-19T15:24:45;18.66;;;10.75;;
71176;SDS011;58877;51.992;4.504;2023-11-19T15:27:31;19.94;;;11.48;;
71176;SDS011;58877;51.992;4.504;2023-11-19T15:29:57;17.74;;;10.25;;
71176;SDS011;58877;51.992;4.504;2023-11-19T15:32:26;18.88;;;10.89;;
71176;SDS011;58877;51.992;4.504;2023-11-19T15:34:59;17.61;;;10.20;;
71176;SDS011;58877;51.992;4.504;2023-11-19T15:37:42;18.15;;;10.67;;
71176;SDS011;58877;51.992;4.504;2023-11-19T15:40:17;13.98;;;8.27;;
71176;SDS011;58877;51.992;4.504;2023-11-19T15:42:53;15.63;;;9.13;;
71176;SDS011;58877;51.992;4.504;2023-11-19T15:45:32;16.90;;;9.62;;
71176;SDS011;58877;51.992;4.504;2023-11-19T15:48:04;18.86;;;10.73;;
71176;SDS011;58877;51.992;4.504;2023-11-19T15:50:39;17.31;;;9.86;;
71176;SDS011;58877;51.992;4.504;2023-11-19T15:53:23;16.20;;;9.29;;
71176;SDS011;58877;51.992;4.504;2023-11-19T15:55:49;17.45;;;9.89;;
71176;SDS011;58877;51.992;4.504;2023-11-19T15:58:19;17.43;;;9.80;;
71176;SDS011;58877;51.992;4.504;2023-11-19T16:00:53;19.72;;;11.12;;
71176;SDS011;58877;51.992;4.504;2023-11-19T16:03:19;17.09;;;9.73;;
71176;SDS011;58877;51.992;4.504;2023-11-19T16:05:47;17.45;;;10.07;;
71176;SDS011;58877;51.992;4.504;2023-11-19T16:08:21;15.20;;;8.78;;
71176;SDS011;58877;51.992;4.504;2023-11-19T16:10:48;16.45;;;9.67;;
71176;SDS011;58877;51.992;4.504;2023-11-19T16:13:29;14.99;;;8.74;;
71176;SDS011;58877;51.992;4.504;2023-11-19T16:15:59;14.85;;;8.73;;
71176;SDS011;58877;51.992;4.504;2023-11-19T16:18:30;16.43;;;9.45;;